createdAt,value
2022-11-05T00:00:42.420Z,8.90
2022-11-05T00:03:27.801Z,8.90
2022-11-05T00:06:12.863Z,8.80
2022-11-05T00:08:59.230Z,8.80
2022-11-05T00:11:45.789Z,8.80
2022-11-05T00:14:31.805Z,8.80
2022-11-05T00:16:58.374Z,8.80
2022-11-05T00:19:24.931Z,8.80
2022-11-05T00:22:10.195Z,8.80
2022-11-05T00:24:55.408Z,8.80
2022-11-05T00:27:21.986Z,8.80
2022-11-05T00:29:48.568Z,8.80
2022-11-05T00:32:15.297Z,8.80
2022-11-05T00:34:41.852Z,8.80
2022-11-05T00:37:08.442Z,8.80
2022-11-05T00:39:34.993Z,8.80
2022-11-05T00:42:20.165Z,8.80
2022-11-05T00:45:02.039Z,8.80
2022-11-05T00:47:49.256Z,8.80
2022-11-05T00:50:17.298Z,8.70
2022-11-05T00:52:55.953Z,8.80
2022-11-05T00:55:34.194Z,8.80
2022-11-05T00:58:02.905Z,8.80
2022-11-05T01:00:32.190Z,8.80
2022-11-05T01:03:09.042Z,8.80
2022-11-05T01:05:41.627Z,8.80
2022-11-05T01:08:09.694Z,8.80
2022-11-05T01:10:48.561Z,8.80
2022-11-05T01:13:20.341Z,8.80
2022-11-05T01:15:47.546Z,8.80
2022-11-05T01:18:14.185Z,8.80
2022-11-05T01:20:40.917Z,8.80
2022-11-05T01:23:12.108Z,8.80
2022-11-05T01:25:41.526Z,8.80
2022-11-05T01:28:09.497Z,8.80
2022-11-05T01:30:36.787Z,8.80
2022-11-05T01:33:03.626Z,8.80
2022-11-05T01:35:30.194Z,8.80
2022-11-05T01:37:56.793Z,8.80
2022-11-05T01:40:25.011Z,8.80
2022-11-05T01:42:51.643Z,8.80
2022-11-05T01:45:26.442Z,8.80
2022-11-05T01:48:09.236Z,8.80
2022-11-05T01:51:21.645Z,8.80
2022-11-05T01:54:01.562Z,8.70
2022-11-05T01:56:36.182Z,8.70
2022-11-05T01:59:10.469Z,8.70
2022-11-05T02:01:37.219Z,8.70
2022-11-05T02:04:10.315Z,8.60
2022-11-05T02:06:45.826Z,8.70
2022-11-05T02:09:23.286Z,8.70
2022-11-05T02:11:51.552Z,8.70
2022-11-05T02:14:18.647Z,8.70
2022-11-05T02:17:06.263Z,8.60
2022-11-05T02:20:01.314Z,8.70
2022-11-05T02:23:11.896Z,8.60
2022-11-05T02:26:23.138Z,8.60
2022-11-05T02:29:08.396Z,8.60
2022-11-05T02:32:19.346Z,8.60
2022-11-05T02:35:14.600Z,8.60
2022-11-05T02:37:51.718Z,8.60
2022-11-05T02:40:50.490Z,8.60
2022-11-05T02:43:35.767Z,8.60
2022-11-05T02:46:30.214Z,8.60
2022-11-05T02:49:17.888Z,8.60
2022-11-05T02:51:53.895Z,8.70
2022-11-05T02:54:31.147Z,8.70
2022-11-05T02:57:00.988Z,8.70
2022-11-05T02:59:27.534Z,8.70
2022-11-05T03:01:55.058Z,8.70
2022-11-05T03:04:23.750Z,8.70
2022-11-05T03:07:14.243Z,8.70
2022-11-05T03:09:58.582Z,8.70
2022-11-05T03:13:32.681Z,8.70
2022-11-05T03:16:18.499Z,8.70
2022-11-05T03:19:02.658Z,8.60
2022-11-05T03:21:56.232Z,8.60
2022-11-05T03:24:30.247Z,8.60
2022-11-05T03:27:02.852Z,8.60
2022-11-05T03:29:42.720Z,8.60
2022-11-05T03:32:10.931Z,8.50
2022-11-05T03:34:43.791Z,8.50
2022-11-05T03:37:11.580Z,8.50
2022-11-05T03:39:44.400Z,8.50
2022-11-05T03:42:15.788Z,8.50
2022-11-05T03:44:49.368Z,8.50
2022-11-05T03:47:24.956Z,8.50
2022-11-05T03:50:09.538Z,8.40
2022-11-05T03:52:44.549Z,8.40
2022-11-05T03:55:11.398Z,8.30
2022-11-05T03:57:41.891Z,8.30
2022-11-05T04:00:10.928Z,8.30
2022-11-05T04:02:37.856Z,8.20
2022-11-05T04:05:05.255Z,8.20
2022-11-05T04:07:50.550Z,8.10
2022-11-05T04:10:36.131Z,8.00
2022-11-05T04:13:21.159Z,7.90
2022-11-05T04:16:06.502Z,7.90
2022-11-05T04:18:33.085Z,7.80
2022-11-05T04:21:18.726Z,7.80
2022-11-05T04:24:04.004Z,7.70
2022-11-05T04:26:30.570Z,7.70
2022-11-05T04:29:15.559Z,7.70
2022-11-05T04:31:42.159Z,7.70
2022-11-05T04:34:08.825Z,7.70
2022-11-05T04:36:35.490Z,7.70
2022-11-05T04:39:02.059Z,7.70
2022-11-05T04:41:28.781Z,7.70
2022-11-05T04:43:55.339Z,7.80
2022-11-05T04:46:21.900Z,7.80
2022-11-05T04:48:48.503Z,7.80
2022-11-05T04:51:15.274Z,7.80
2022-11-05T04:53:41.830Z,7.80
2022-11-05T04:56:11.180Z,7.80
2022-11-05T04:58:42.290Z,7.90
2022-11-05T05:01:23.495Z,7.90
2022-11-05T05:03:52.299Z,7.90
2022-11-05T05:06:19.942Z,7.90
2022-11-05T05:08:48.032Z,8.00
2022-11-05T05:11:17.758Z,8.00
2022-11-05T05:13:44.823Z,8.00
2022-11-05T05:16:24.441Z,8.10
2022-11-05T05:18:51.644Z,8.10
2022-11-05T05:21:38.844Z,8.10
2022-11-05T05:24:17.255Z,8.10
2022-11-05T05:26:51.098Z,8.10
2022-11-05T05:29:18.767Z,8.20
2022-11-05T05:31:45.740Z,8.20
2022-11-05T05:34:14.473Z,8.20
2022-11-05T05:36:41.323Z,8.20
2022-11-05T05:39:10.644Z,8.20
2022-11-05T05:41:37.205Z,8.20
2022-11-05T05:44:06.050Z,8.20
2022-11-05T05:46:32.731Z,8.20
2022-11-05T05:48:59.272Z,8.20
2022-11-05T05:51:25.964Z,8.20
2022-11-05T05:53:54.603Z,8.20
2022-11-05T05:56:21.493Z,8.20
2022-11-05T05:58:48.156Z,8.20
2022-11-05T06:01:19.297Z,8.20
2022-11-05T06:03:47.995Z,8.20
2022-11-05T06:06:19.583Z,8.20
2022-11-05T06:08:46.716Z,8.20
2022-11-05T06:11:13.661Z,8.30
2022-11-05T06:13:40.263Z,8.20
2022-11-05T06:16:09.197Z,8.20
2022-11-05T06:18:36.796Z,8.20
2022-11-05T06:21:15.954Z,8.30
2022-11-05T06:23:45.051Z,8.20
2022-11-05T06:26:16.371Z,8.20
2022-11-05T06:28:43.351Z,8.20
2022-11-05T06:31:11.261Z,8.20
2022-11-05T06:33:38.214Z,8.20
2022-11-05T06:36:07.899Z,8.20
2022-11-05T06:38:36.267Z,8.20
2022-11-05T06:41:09.799Z,8.20
2022-11-05T06:43:37.314Z,8.20
2022-11-05T06:46:04.869Z,8.30
2022-11-05T06:48:31.756Z,8.30
2022-11-05T06:50:58.441Z,8.20
2022-11-05T06:53:25.316Z,8.20
2022-11-05T06:55:52.194Z,8.20
2022-11-05T06:58:18.862Z,8.20
2022-11-05T07:00:45.833Z,8.20
2022-11-05T07:03:13.515Z,8.20
2022-11-05T07:05:45.859Z,8.30
2022-11-05T07:08:12.522Z,8.30
2022-11-05T07:10:39.134Z,8.30
2022-11-05T07:13:08.453Z,8.40
2022-11-05T07:15:36.447Z,8.40
2022-11-05T07:18:03.343Z,8.40
2022-11-05T07:20:33.874Z,8.40
2022-11-05T07:23:03.479Z,8.50
2022-11-05T07:25:32.238Z,8.40
2022-11-05T07:27:59.184Z,8.40
2022-11-05T07:30:26.692Z,8.40
2022-11-05T07:32:53.373Z,8.50
2022-11-05T07:35:20.078Z,8.50
2022-11-05T07:37:51.828Z,8.50
2022-11-05T07:40:19.925Z,8.50
2022-11-05T07:42:52.878Z,8.60
2022-11-05T07:45:20.226Z,8.50
2022-11-05T07:47:51.489Z,8.60
2022-11-05T07:50:20.754Z,8.60
2022-11-05T07:52:48.553Z,8.60
2022-11-05T07:55:16.536Z,8.70
2022-11-05T07:57:49.487Z,8.70
2022-11-05T08:00:20.186Z,8.70
2022-11-05T08:03:09.027Z,8.70
2022-11-05T08:05:39.384Z,8.70
2022-11-05T08:08:08.671Z,8.70
2022-11-05T08:10:36.567Z,8.60
2022-11-05T08:13:05.353Z,8.70
2022-11-05T08:15:32.740Z,8.70
2022-11-05T08:18:19.599Z,8.60
2022-11-05T08:20:47.532Z,8.60
2022-11-05T08:23:14.767Z,8.50
2022-11-05T08:25:41.906Z,8.50
2022-11-05T08:28:12.092Z,8.50
2022-11-05T08:30:38.916Z,8.60
2022-11-05T08:33:09.367Z,8.60
2022-11-05T08:35:37.591Z,8.60
2022-11-05T08:38:07.419Z,8.70
2022-11-05T08:40:36.109Z,8.80
2022-11-05T08:43:07.114Z,9.00
2022-11-05T08:45:38.265Z,9.10
2022-11-05T08:48:16.641Z,9.20
2022-11-05T08:50:45.648Z,9.20
2022-11-05T08:53:13.517Z,9.40
2022-11-05T08:55:40.419Z,9.40
2022-11-05T08:58:15.198Z,9.50
2022-11-05T09:00:45.195Z,9.50
2022-11-05T09:03:12.610Z,9.60
2022-11-05T09:05:40.896Z,9.70
2022-11-05T09:08:13.568Z,9.90
2022-11-05T09:10:41.212Z,9.90
2022-11-05T09:13:13.108Z,10.00
2022-11-05T09:15:43.556Z,10.00
2022-11-05T09:18:13.838Z,10.10
2022-11-05T09:20:40.741Z,10.00
2022-11-05T09:23:09.119Z,9.90
2022-11-05T09:25:36.021Z,9.90
2022-11-05T09:28:22.556Z,9.90
2022-11-05T09:30:51.661Z,10.00
2022-11-05T09:33:24.269Z,10.10
2022-11-05T09:35:53.309Z,10.10
2022-11-05T09:38:19.920Z,10.10
2022-11-05T09:41:08.627Z,10.20
2022-11-05T09:43:58.797Z,10.30
2022-11-05T09:46:28.801Z,10.40
2022-11-05T09:49:05.957Z,10.50
2022-11-05T09:51:33.424Z,10.50
2022-11-05T09:54:01.216Z,10.50
2022-11-05T09:56:32.037Z,10.60
2022-11-05T09:59:26.339Z,10.60
2022-11-05T10:02:22.212Z,10.60
2022-11-05T10:04:57.832Z,10.70
2022-11-05T10:07:28.571Z,10.90
2022-11-05T10:10:01.195Z,11.00
2022-11-05T10:12:46.583Z,11.00
2022-11-05T10:15:23.629Z,11.00
2022-11-05T10:17:58.964Z,11.10
2022-11-05T10:20:39.398Z,11.10
2022-11-05T10:23:19.205Z,11.10
2022-11-05T10:25:51.497Z,11.10
2022-11-05T10:28:22.707Z,10.90
2022-11-05T10:30:55.581Z,10.80
2022-11-05T10:33:54.777Z,10.80
2022-11-05T10:36:29.303Z,10.80
2022-11-05T10:39:09.986Z,10.80
2022-11-05T10:41:57.413Z,10.80
2022-11-05T10:44:37.193Z,10.80
2022-11-05T10:47:41.425Z,10.80
2022-11-05T10:50:16.964Z,10.80
2022-11-05T10:53:01.694Z,10.90
2022-11-05T10:55:38.509Z,10.80
2022-11-05T10:58:15.716Z,10.80
2022-11-05T11:00:44.940Z,10.90
2022-11-05T11:03:48.852Z,10.90
2022-11-05T11:06:37.883Z,11.00
2022-11-05T11:09:19.857Z,10.90
2022-11-05T11:11:55.521Z,11.00
2022-11-05T11:14:22.211Z,11.10
2022-11-05T11:16:51.413Z,11.20
2022-11-05T11:19:21.243Z,11.40
2022-11-05T11:22:07.832Z,11.40
2022-11-05T11:24:40.116Z,11.40
2022-11-05T11:27:13.946Z,11.50
2022-11-05T11:29:49.192Z,11.60
2022-11-05T11:32:19.668Z,11.70
2022-11-05T11:34:52.281Z,11.70
2022-11-05T11:37:30.443Z,11.90
2022-11-05T11:40:21.226Z,11.90
2022-11-05T11:42:53.261Z,12.10
2022-11-05T11:45:31.250Z,12.10
2022-11-05T11:47:57.917Z,12.20
2022-11-05T11:50:48.201Z,12.30
2022-11-05T11:53:26.582Z,12.50
2022-11-05T11:55:59.661Z,12.40
2022-11-05T11:58:46.016Z,12.50
2022-11-05T12:01:47.364Z,12.50
2022-11-05T12:04:52.916Z,12.40
2022-11-05T12:07:39.982Z,12.40
2022-11-05T12:10:28.301Z,12.40
2022-11-05T12:13:48.622Z,12.40
2022-11-05T12:16:31.858Z,12.20
2022-11-05T12:19:46.917Z,12.30
2022-11-05T12:22:38.638Z,12.30
2022-11-05T12:25:46.868Z,12.30
2022-11-05T12:32:39.849Z,12.00
2022-11-05T12:35:56.446Z,11.80
2022-11-05T12:38:52.288Z,11.60
2022-11-05T12:41:33.290Z,11.50
2022-11-05T12:44:11.672Z,11.30
2022-11-05T12:47:12.344Z,11.20
2022-11-05T12:50:04.667Z,11.10
2022-11-05T12:53:02.507Z,11.00
2022-11-05T12:55:48.273Z,11.00
2022-11-05T12:58:31.529Z,11.10
2022-11-05T13:01:09.770Z,11.00
2022-11-05T13:03:48.459Z,11.00
2022-11-05T13:06:41.940Z,11.00
2022-11-05T13:09:33.179Z,11.00
2022-11-05T13:12:12.134Z,11.00
2022-11-05T13:14:48.520Z,11.00
2022-11-05T13:17:20.303Z,11.00
2022-11-05T13:20:17.548Z,11.10
2022-11-05T13:23:24.044Z,11.10
2022-11-05T13:25:58.088Z,11.20
2022-11-05T13:29:01.521Z,11.20
2022-11-05T13:31:35.832Z,11.20
2022-11-05T13:34:10.964Z,11.20
2022-11-05T13:37:12.592Z,11.20
2022-11-05T13:39:52.691Z,11.30
2022-11-05T13:43:16.007Z,11.40
2022-11-05T13:46:06.089Z,11.50
2022-11-05T13:48:54.395Z,11.70
2022-11-05T13:51:46.603Z,11.80
2022-11-05T13:54:58.119Z,11.90
2022-11-05T13:58:09.791Z,11.90
2022-11-05T14:01:00.586Z,11.80
2022-11-05T14:03:27.595Z,11.60
2022-11-05T14:06:07.094Z,11.50
2022-11-05T14:08:43.968Z,11.30
2022-11-05T14:11:36.746Z,11.10
2022-11-05T14:14:09.612Z,10.90
2022-11-05T14:17:14.541Z,10.80
2022-11-05T14:20:10.040Z,10.70
2022-11-05T14:22:40.888Z,10.60
2022-11-05T14:25:19.587Z,10.50
2022-11-05T14:27:49.157Z,10.50
2022-11-05T14:30:41.688Z,10.40
2022-11-05T14:33:26.531Z,10.40
2022-11-05T14:36:19.705Z,10.50
2022-11-05T14:39:04.393Z,10.50
2022-11-05T14:41:31.305Z,10.50
2022-11-05T14:44:04.459Z,10.50
2022-11-05T14:46:44.642Z,10.50
2022-11-05T14:49:33.577Z,10.50
2022-11-05T14:52:07.961Z,10.50
2022-11-05T14:54:43.885Z,10.50
2022-11-05T15:00:00.885Z,10.40
2022-11-05T15:02:38.429Z,10.40
2022-11-05T15:05:40.172Z,10.40
2022-11-05T15:08:29.053Z,10.40
2022-11-05T15:11:09.358Z,10.30
2022-11-05T15:13:49.489Z,10.30
2022-11-05T15:16:32.782Z,10.20
2022-11-05T15:19:00.533Z,10.20
2022-11-05T15:21:37.982Z,10.10
2022-11-05T15:24:05.336Z,10.00
2022-11-05T15:26:47.708Z,9.90
2022-11-05T15:29:19.211Z,9.90
2022-11-05T15:31:46.841Z,9.80
2022-11-05T15:34:35.433Z,9.70
2022-11-05T15:37:09.585Z,9.60
2022-11-05T15:39:41.693Z,9.50
2022-11-05T15:42:27.689Z,9.50
2022-11-05T15:44:59.929Z,9.40
2022-11-05T15:47:36.766Z,9.30
2022-11-05T15:50:14.981Z,9.20
2022-11-05T15:52:50.625Z,9.10
2022-11-05T15:55:23.489Z,9.10
2022-11-05T15:57:56.903Z,9.00
2022-11-05T16:00:27.665Z,8.90
2022-11-05T16:03:03.097Z,8.80
2022-11-05T16:05:34.648Z,8.70
2022-11-05T16:08:04.188Z,8.60
2022-11-05T16:10:37.947Z,8.50
2022-11-05T16:13:34.006Z,8.40
2022-11-05T16:16:25.737Z,8.30
2022-11-05T16:18:52.702Z,8.20
2022-11-05T16:21:22.990Z,8.10
2022-11-05T16:23:49.544Z,8.10
2022-11-05T16:27:01.846Z,8.10
2022-11-05T16:29:42.109Z,8.00
2022-11-05T16:32:30.824Z,7.90
2022-11-05T16:35:02.817Z,7.90
2022-11-05T16:37:37.655Z,7.90
2022-11-05T16:40:14.516Z,7.90
2022-11-05T16:42:41.656Z,7.80
2022-11-05T16:45:13.500Z,7.80
2022-11-05T16:47:40.792Z,7.80
2022-11-05T16:50:20.637Z,7.70
2022-11-05T16:52:48.157Z,7.80
2022-11-05T16:55:16.581Z,7.80
2022-11-05T16:57:46.845Z,7.80
2022-11-05T17:00:17.178Z,7.80
2022-11-05T17:02:44.176Z,7.80
2022-11-05T17:05:27.105Z,7.80
2022-11-05T17:07:55.900Z,7.80
2022-11-05T17:10:24.647Z,7.80
2022-11-05T17:12:51.672Z,7.70
2022-11-05T17:15:22.639Z,7.70
2022-11-05T17:17:49.717Z,7.70
2022-11-05T17:20:40.620Z,7.60
2022-11-05T17:23:15.507Z,7.60
2022-11-05T17:25:45.086Z,7.50
2022-11-05T17:28:12.457Z,7.40
2022-11-05T17:30:41.738Z,7.40
2022-11-05T17:33:10.995Z,7.40
2022-11-05T17:35:39.811Z,7.40
2022-11-05T17:38:06.375Z,7.30
2022-11-05T17:40:35.179Z,7.20
2022-11-05T17:43:02.595Z,7.10
2022-11-05T17:45:29.530Z,7.00
2022-11-05T17:47:56.159Z,6.90
2022-11-05T17:50:22.768Z,6.90
2022-11-05T17:52:49.348Z,6.80
2022-11-05T17:55:17.077Z,6.70
2022-11-05T17:57:49.754Z,6.60
2022-11-05T18:00:22.484Z,6.50
2022-11-05T18:02:51.749Z,6.40
2022-11-05T18:05:19.726Z,6.40
2022-11-05T18:07:47.384Z,6.40
2022-11-05T18:10:15.187Z,6.30
2022-11-05T18:12:43.345Z,6.20
2022-11-05T18:15:10.471Z,6.30
2022-11-05T18:17:37.438Z,6.20
2022-11-05T18:20:10.653Z,6.10
2022-11-05T18:22:39.925Z,6.20
2022-11-05T18:25:08.445Z,6.20
2022-11-05T18:27:35.689Z,6.20
2022-11-05T18:30:03.024Z,6.20
2022-11-05T18:32:30.813Z,6.20
2022-11-05T18:34:57.428Z,6.30
2022-11-05T18:37:24.267Z,6.20
2022-11-05T18:39:52.731Z,6.30
2022-11-05T18:42:20.571Z,6.30
2022-11-05T18:44:48.120Z,6.30
2022-11-05T18:47:14.897Z,6.30
2022-11-05T18:49:41.497Z,6.30
2022-11-05T18:52:08.410Z,6.40
2022-11-05T18:54:35.161Z,6.40
2022-11-05T18:57:02.165Z,6.40
2022-11-05T18:59:38.580Z,6.40
2022-11-05T19:02:07.871Z,6.40
2022-11-05T19:04:38.414Z,6.40
2022-11-05T19:07:06.835Z,6.50
2022-11-05T19:09:35.331Z,6.60
2022-11-05T19:12:02.477Z,6.60
2022-11-05T19:14:31.334Z,6.70
2022-11-05T19:16:59.553Z,6.70
2022-11-05T19:19:26.515Z,6.70
2022-11-05T19:21:53.854Z,6.80
2022-11-05T19:24:20.490Z,6.90
2022-11-05T19:26:47.941Z,7.00
2022-11-05T19:29:14.548Z,7.00
2022-11-05T19:31:41.107Z,7.00
2022-11-05T19:34:08.193Z,7.10
2022-11-05T19:36:34.938Z,7.00
2022-11-05T19:39:06.412Z,7.10
2022-11-05T19:41:33.193Z,7.10
2022-11-05T19:44:01.437Z,7.10
2022-11-05T19:46:29.584Z,7.10
2022-11-05T19:48:57.114Z,7.10
2022-11-05T19:51:28.096Z,7.10
2022-11-05T19:53:55.627Z,7.10
2022-11-05T19:56:32.788Z,7.20
2022-11-05T19:59:00.642Z,7.20
2022-11-05T20:01:29.007Z,7.20
2022-11-05T20:03:58.196Z,7.20
2022-11-05T20:06:32.767Z,7.20
2022-11-05T20:11:56.013Z,7.20
2022-11-05T20:14:24.050Z,7.20
2022-11-05T20:16:50.849Z,7.20
2022-11-05T20:19:20.621Z,7.20
2022-11-05T20:21:48.055Z,7.20
2022-11-05T20:24:22.406Z,7.20
2022-11-05T20:26:51.350Z,7.10
2022-11-05T20:29:18.037Z,7.10
2022-11-05T20:31:44.673Z,7.00
2022-11-05T20:34:11.396Z,7.00
2022-11-05T20:36:39.404Z,6.90
2022-11-05T20:39:05.983Z,6.80
2022-11-05T20:41:33.026Z,6.70
2022-11-05T20:43:59.827Z,6.60
2022-11-05T20:46:26.936Z,6.50
2022-11-05T20:48:54.191Z,6.50
2022-11-05T20:51:24.055Z,6.40
2022-11-05T20:53:58.241Z,6.40
2022-11-05T20:56:29.333Z,6.40
2022-11-05T20:58:58.301Z,6.30
2022-11-05T21:01:26.394Z,6.30
2022-11-05T21:03:53.340Z,6.30
2022-11-05T21:06:19.915Z,6.20
2022-11-05T21:08:49.859Z,6.20
2022-11-05T21:11:18.462Z,6.20
2022-11-05T21:13:45.584Z,6.20
2022-11-05T21:16:18.062Z,6.20
2022-11-05T21:18:46.160Z,6.20
2022-11-05T21:21:19.381Z,6.20
2022-11-05T21:23:46.786Z,6.20
2022-11-05T21:26:16.618Z,6.20
2022-11-05T21:28:43.687Z,6.20
2022-11-05T21:31:10.811Z,6.10
2022-11-05T21:33:38.362Z,6.20
2022-11-05T21:36:11.538Z,6.20
2022-11-05T21:38:39.056Z,6.30
2022-11-05T21:41:07.134Z,6.30
2022-11-05T21:43:34.034Z,6.30
2022-11-05T21:46:02.618Z,6.30
2022-11-05T21:48:29.837Z,6.30
2022-11-05T21:51:14.963Z,6.30
2022-11-05T21:54:00.010Z,6.20
2022-11-05T21:56:46.523Z,6.30
2022-11-05T21:59:35.123Z,6.30
2022-11-05T22:02:02.638Z,6.40
2022-11-05T22:04:32.083Z,6.40
2022-11-05T22:06:58.764Z,6.40
2022-11-05T22:09:26.071Z,6.40
2022-11-05T22:11:53.491Z,6.40
2022-11-05T22:14:20.363Z,6.40
2022-11-05T22:16:47.133Z,6.40
2022-11-05T22:19:14.083Z,6.30
2022-11-05T22:21:40.739Z,6.30
2022-11-05T22:24:08.387Z,6.30
2022-11-05T22:26:37.119Z,6.30
2022-11-05T22:29:04.790Z,6.30
2022-11-05T22:31:36.025Z,6.30
2022-11-05T22:34:05.131Z,6.30
2022-11-05T22:36:33.985Z,6.20
2022-11-05T22:39:01.407Z,6.20
2022-11-05T22:41:28.265Z,6.20
2022-11-05T22:43:55.669Z,6.20
2022-11-05T22:46:25.485Z,6.10
2022-11-05T22:48:53.141Z,6.10
2022-11-05T22:51:28.445Z,6.10
2022-11-05T22:53:55.480Z,6.10
2022-11-05T22:56:25.608Z,6.10
2022-11-05T22:58:52.889Z,6.10
2022-11-05T23:01:21.791Z,6.00
2022-11-05T23:03:50.456Z,6.00
2022-11-05T23:06:43.294Z,6.00
2022-11-05T23:09:34.686Z,6.00
2022-11-05T23:12:03.056Z,5.90
2022-11-05T23:14:29.749Z,5.90
2022-11-05T23:17:15.086Z,5.90
2022-11-05T23:20:00.363Z,5.90
2022-11-05T23:22:49.138Z,5.80
2022-11-05T23:25:20.028Z,5.80
2022-11-05T23:27:49.590Z,5.80
2022-11-05T23:30:22.698Z,5.80
2022-11-05T23:32:50.865Z,5.80
2022-11-05T23:35:38.192Z,5.70
2022-11-05T23:38:23.538Z,5.70
2022-11-05T23:41:08.812Z,5.70
2022-11-05T23:43:53.851Z,5.70
2022-11-05T23:46:39.377Z,5.70
2022-11-05T23:49:06.178Z,5.60
2022-11-05T23:51:32.805Z,5.60
2022-11-05T23:53:59.390Z,5.50
2022-11-05T23:56:26.010Z,5.50
2022-11-05T23:58:52.637Z,5.50
